Time;durP1;ratioP1;P1;durP2;ratioP2;P2;SDS_P1;SDS_P2;PMS_P1;PMS_P2;Temp;Humidity;BMP_temperature;BMP_pressure;BME280_temperature;BME280_humidity;BME280_pressure;Samples;Min_cycle;Max_cycle;Signal;HPM_P1;HPM_P2
2021/12/20 00:00:09;;;;;;;10.10;3.42;;;;;;;-0.62;58.64;96204.22;4989921;28;20058;-71
2021/12/20 00:02:41;;;;;;;9.55;3.00;;;;;;;-0.55;58.38;96188.53;4973688;28;20046;-72
2021/12/20 00:05:08;;;;;;;9.77;3.40;;;;;;;-0.58;58.17;96199.84;4989761;28;20133;-71
2021/12/20 00:07:34;;;;;;;8.25;3.22;;;;;;;-0.61;57.81;96200.44;4988543;28;20136;-71
2021/12/20 00:10:00;;;;;;;10.32;2.75;;;;;;;-0.58;57.66;96207.91;4988024;28;20483;-71
2021/12/20 00:12:26;;;;;;;7.35;2.80;;;;;;;-0.56;57.28;96205.72;4991365;28;20136;-72
2021/12/20 00:14:53;;;;;;;7.70;3.00;;;;;;;-0.64;57.32;96203.69;4974407;28;20164;-72
2021/12/20 00:17:19;;;;;;;8.05;2.97;;;;;;;-0.72;57.14;96203.25;4969123;28;20439;-74
2021/12/20 00:19:47;;;;;;;9.75;2.88;;;;;;;-0.65;57.22;96199.41;4971611;28;20050;-74
2021/12/20 00:22:13;;;;;;;7.47;2.30;;;;;;;-0.58;57.10;96221.31;4977323;28;20097;-74
2021/12/20 00:24:39;;;;;;;9.00;2.78;;;;;;;-0.60;56.87;96224.28;4992184;28;20165;-74
2021/12/20 00:27:07;;;;;;;8.55;2.97;;;;;;;-0.48;56.21;96223.84;4977875;28;20141;-74
2021/12/20 00:29:34;;;;;;;7.03;2.45;;;;;;;-0.57;56.33;96228.28;4977604;28;20046;-72
2021/12/20 00:32:00;;;;;;;7.90;2.40;;;;;;;-0.63;56.21;96221.38;4976387;28;20046;-72
2021/12/20 00:34:26;;;;;;;6.15;2.30;;;;;;;-0.61;56.31;96229.97;4990457;28;20046;-72
2021/12/20 00:37:03;;;;;;;7.05;2.78;;;;;;;-0.67;56.04;96239.16;4977037;28;20100;-72
2021/12/20 00:42:15;;;;;;;6.25;2.20;;;;;;;-0.72;56.23;96246.19;4971540;28;20058;-72
2021/12/20 00:44:42;;;;;;;;;;;;;;;-0.74;56.16;96255.59;4956381;28;20551;-72
2021/12/20 00:47:11;;;;;;;8.60;2.60;;;;;;;-0.74;56.09;96242.19;4985946;28;19929;-72
2021/12/20 00:49:37;;;;;;;6.53;2.33;;;;;;;-0.81;56.08;96245.22;4991880;28;20043;-72
2021/12/20 00:52:06;;;;;;;7.30;2.28;;;;;;;-0.82;56.03;96251.69;4979355;28;20046;-72
2021/12/20 00:54:34;;;;;;;8.40;2.45;;;;;;;-0.80;56.06;96251.41;4975763;28;20054;-73
2021/12/20 00:57:00;;;;;;;9.10;2.63;;;;;;;-0.83;56.24;96258.13;4976851;28;20046;-73
2021/12/20 00:59:26;;;;;;;7.22;2.30;;;;;;;-0.86;56.36;96253.34;4976670;28;20057;-73
2021/12/20 01:01:53;;;;;;;5.43;2.00;;;;;;;-0.87;56.26;96259.78;4993483;28;20567;-73
2021/12/20 01:04:19;;;;;;;6.68;2.20;;;;;;;-0.87;56.16;96263.25;4988810;28;20470;-72
2021/12/20 01:06:46;;;;;;;7.20;2.17;;;;;;;-0.83;56.22;96266.19;4976283;28;20073;-72
2021/12/20 01:09:13;;;;;;;7.00;2.40;;;;;;;-0.79;56.21;96269.88;4994141;28;20064;-73
2021/12/20 01:11:42;;;;;;;7.70;1.90;;;;;;;-0.81;56.21;96288.16;4969142;28;20046;-73
2021/12/20 01:14:11;;;;;;;5.82;2.03;;;;;;;-1.00;56.29;96259.41;4991211;28;20144;-72
2021/12/20 01:16:37;;;;;;;6.78;1.95;;;;;;;-0.88;56.38;96275.06;4982338;28;20427;-73
2021/12/20 01:19:03;;;;;;;8.02;2.05;;;;;;;-0.91;56.51;96294.44;4991075;28;20066;-72
2021/12/20 01:21:30;;;;;;;4.72;1.77;;;;;;;-0.94;56.62;96302.25;4977700;28;20046;-72
2021/12/20 01:23:56;;;;;;;7.95;2.33;;;;;;;-0.99;56.84;96292.41;4989057;28;20042;-72
2021/12/20 01:26:27;;;;;;;6.35;2.15;;;;;;;-0.98;56.81;96288.63;4944775;28;20050;-72
2021/12/20 01:28:53;;;;;;;5.57;2.10;;;;;;;-1.03;56.75;96288.66;4975435;28;20050;-72
2021/12/20 01:31:19;;;;;;;6.78;1.98;;;;;;;-1.13;56.78;96294.94;4989308;28;20471;-72
2021/12/20 01:33:45;;;;;;;5.07;1.92;;;;;;;-1.16;56.64;96298.19;4976016;28;20065;-71
2021/12/20 01:36:11;;;;;;;5.70;1.88;;;;;;;-1.12;56.58;96301.13;4959972;28;20499;-71
2021/12/20 01:38:37;;;;;;;6.20;2.10;;;;;;;-1.07;56.29;96304.56;4959395;28;20105;-71
2021/12/20 01:41:04;;;;;;;8.75;1.92;;;;;;;-1.20;56.26;96299.84;4975366;28;20046;-71
2021/12/20 01:43:32;;;;;;;8.00;1.90;;;;;;;-1.15;56.11;96305.16;4961409;28;20046;-70
2021/12/20 01:46:01;;;;;;;4.30;1.80;;;;;;;-1.27;56.12;96289.47;5001593;28;20100;-72
2021/12/20 01:48:29;;;;;;;9.52;2.13;;;;;;;-1.08;55.76;96312.88;4958836;28;20066;-72
2021/12/20 01:53:36;;;;;;;5.78;1.77;;;;;;;-1.21;56.40;96323.19;4976228;28;20430;-71
2021/12/20 01:56:03;;;;;;;6.38;2.00;;;;;;;-1.35;56.11;96328.41;4976638;28;20052;-71
2021/12/20 01:58:32;;;;;;;7.50;2.10;;;;;;;-1.31;56.21;96336.69;4988736;28;20049;-71
2021/12/20 02:03:32;;;;;;;5.50;1.83;;;;;;;-1.30;56.07;96351.69;4992349;28;20050;-71
2021/12/20 02:05:59;;;;;;;7.53;1.90;;;;;;;-1.35;56.03;96338.31;4991438;28;20050;-71
2021/12/20 02:08:29;;;;;;;5.53;1.98;;;;;;;-1.29;55.92;96347.94;4988812;28;20046;-71
2021/12/20 02:10:58;;;;;;;5.25;1.80;;;;;;;-1.34;56.12;96354.13;4975241;28;20054;-71
2021/12/20 02:13:29;;;;;;;4.13;1.80;;;;;;;-1.22;55.82;96350.28;4975228;28;20507;-71
2021/12/20 02:15:58;;;;;;;4.95;1.70;;;;;;;-1.26;55.69;96363.44;4988450;28;20050;-71
2021/12/20 02:18:25;;;;;;;5.32;1.83;;;;;;;-1.25;55.63;96358.88;4993209;28;20428;-69
2021/12/20 02:20:53;;;;;;;5.97;1.90;;;;;;;-1.29;55.43;96367.47;4952528;28;20045;-71
2021/12/20 02:23:19;;;;;;;5.60;1.80;;;;;;;-1.28;55.71;96370.97;4992553;28;20427;-72
2021/12/20 02:25:46;;;;;;;5.05;1.80;;;;;;;-1.32;55.53;96378.78;4989531;28;20537;-71
2021/12/20 02:28:14;;;;;;;5.55;1.88;;;;;;;-1.35;55.58;96381.22;4996130;28;20319;-71
2021/12/20 02:38:44;;;;;;;5.65;2.05;;;;;;;-1.43;55.80;96394.16;4992074;28;20050;-71
2021/12/20 02:41:13;;;;;;;6.15;1.98;;;;;;;-1.41;56.07;96396.53;4993103;28;20046;-70
2021/12/20 02:43:43;;;;;;;7.72;2.13;;;;;;;-1.46;55.98;96396.56;4986763;28;20108;-69
2021/12/20 02:46:27;;;;;;;5.88;2.00;;;;;;;-1.34;55.87;96401.56;4992079;28;20054;-70
2021/12/20 02:48:57;;;;;;;5.55;1.70;;;;;;;-1.43;56.08;96406.72;4974065;28;20431;-70
2021/12/20 02:51:27;;;;;;;5.30;1.73;;;;;;;-1.45;55.90;96409.72;4992615;28;20058;-70
2021/12/20 02:53:55;;;;;;;6.25;2.10;;;;;;;-1.49;56.18;96400.59;4985831;28;20077;-70
2021/12/20 02:56:22;;;;;;;5.45;1.73;;;;;;;-1.51;56.07;96407.34;4970883;28;20050;-72
2021/12/20 02:58:48;;;;;;;5.03;1.93;;;;;;;-1.52;56.00;96416.47;4968831;28;20516;-71
2021/12/20 03:01:15;;;;;;;5.22;1.60;;;;;;;-1.54;56.00;96434.72;4972852;28;20129;-70
2021/12/20 03:03:42;;;;;;;7.35;1.92;;;;;;;-1.48;56.12;96420.19;4970512;28;20046;-70
2021/12/20 03:06:10;;;;;;;8.75;2.00;;;;;;;-1.60;55.78;96404.47;4992811;28;20058;-71
2021/12/20 03:08:38;;;;;;;5.50;1.75;;;;;;;-1.55;55.75;96433.91;4963149;28;20519;-71
2021/12/20 03:11:05;;;;;;;4.15;1.65;;;;;;;-1.46;55.66;96442.13;4987831;28;20047;-71
2021/12/20 03:13:31;;;;;;;5.97;1.60;;;;;;;-1.47;55.41;96440.53;4974544;28;20137;-71
2021/12/20 03:15:58;;;;;;;6.13;1.70;;;;;;;-1.52;55.49;96444.06;4990860;28;20058;-71
2021/12/20 03:18:24;;;;;;;5.97;1.65;;;;;;;-1.53;55.64;96449.72;4992013;28;20050;-70
2021/12/20 03:20:50;;;;;;;6.68;2.20;;;;;;;-1.58;55.53;96442.50;4990694;28;20050;-70
2021/12/20 03:23:16;;;;;;;5.20;1.63;;;;;;;-1.66;55.68;96443.88;4991400;28;20077;-70
2021/12/20 03:25:44;;;;;;;4.90;1.60;;;;;;;-1.66;55.50;96457.28;4973693;28;20038;-69
2021/12/20 03:28:12;;;;;;;6.97;1.70;;;;;;;-1.65;55.42;96442.81;4972409;28;20046;-71
2021/12/20 03:30:38;;;;;;;4.83;1.67;;;;;;;-1.64;55.39;96440.91;4971083;28;20046;-71
2021/12/20 03:33:05;;;;;;;7.65;2.25;;;;;;;-1.68;55.39;96448.72;4976236;28;20054;-70
2021/12/20 03:35:31;;;;;;;4.90;1.60;;;;;;;-1.63;55.23;96456.72;4987549;28;20042;-71
2021/12/20 03:37:57;;;;;;;3.33;1.50;;;;;;;-1.67;55.08;96469.06;4982964;28;20047;-71
2021/12/20 03:40:24;;;;;;;4.37;1.50;;;;;;;-1.76;55.23;96460.00;4982081;28;20145;-70
2021/12/20 03:42:52;;;;;;;5.78;1.60;;;;;;;-1.72;55.10;96472.56;4991984;28;20049;-70
2021/12/20 03:45:18;;;;;;;;;;;;;;;-1.75;54.95;96469.66;4991973;28;20054;-70
2021/12/20 03:47:44;;;;;;;4.40;1.40;;;;;;;-1.87;54.97;96476.16;4985688;28;20449;-70
2021/12/20 03:50:12;;;;;;;6.50;2.13;;;;;;;-1.84;54.60;96474.78;4972288;28;20140;-70
2021/12/20 03:52:39;;;;;;;5.93;1.80;;;;;;;-1.75;54.40;96483.03;4971171;28;20073;-71
2021/12/20 03:55:06;;;;;;;5.05;1.75;;;;;;;-1.79;54.25;96490.84;4995087;28;20042;-71
2021/12/20 03:57:33;;;;;;;6.83;1.80;;;;;;;-1.81;54.39;96494.88;4991808;28;20050;-70
2021/12/20 04:00:03;;;;;;;5.95;1.90;;;;;;;-1.87;54.25;96486.88;4993275;28;20050;-70
2021/12/20 04:02:43;;;;;;;4.97;1.70;;;;;;;-1.89;54.24;96494.34;4995198;28;20046;-72
2021/12/20 04:05:11;;;;;;;6.28;1.88;;;;;;;-2.02;54.30;96494.97;4962538;28;20073;-71
2021/12/20 04:07:37;;;;;;;7.00;1.70;;;;;;;-2.05;54.37;96501.66;4978738;28;20050;-71
2021/12/20 04:10:05;;;;;;;7.00;2.17;;;;;;;-2.05;54.41;96503.53;4987814;28;20149;-71
2021/12/20 04:12:31;;;;;;;5.50;1.88;;;;;;;-1.94;54.40;96501.63;4977164;28;20054;-70
2021/12/20 04:14:58;;;;;;;5.70;1.93;;;;;;;-2.04;54.18;96519.31;5007971;28;20054;-71
2021/12/20 04:17:27;;;;;;;6.47;2.13;;;;;;;-2.06;54.26;96515.31;4995623;28;20140;-70
2021/12/20 04:19:53;;;;;;;;;;;;;;;-2.04;54.29;96521.19;5012496;28;20041;-69
2021/12/20 04:22:19;;;;;;;5.93;1.80;;;;;;;-2.11;54.49;96529.50;4977560;28;19932;-69
2021/12/20 04:24:45;;;;;;;5.45;1.85;;;;;;;-2.10;54.42;96541.84;4990445;28;20085;-69
2021/12/20 04:27:11;;;;;;;5.97;2.00;;;;;;;-2.15;54.46;96531.13;4994322;28;20050;-70
2021/12/20 04:29:38;;;;;;;5.72;1.80;;;;;;;-2.26;54.56;96540.25;4995129;28;20058;-70
2021/12/20 04:32:06;;;;;;;4.63;1.50;;;;;;;-2.33;54.79;96533.31;4976526;28;20046;-72
2021/12/20 04:34:33;;;;;;;4.07;1.70;;;;;;;-2.34;54.64;96547.78;4991412;28;20051;-71
2021/12/20 04:36:59;;;;;;;6.63;2.20;;;;;;;-2.38;54.77;96543.22;4990850;28;20117;-66
2021/12/20 04:39:30;;;;;;;6.93;2.00;;;;;;;-2.42;54.84;96553.66;4994224;28;20054;-65
2021/12/20 04:41:56;;;;;;;5.43;2.03;;;;;;;-2.50;54.82;96556.91;4990630;28;20042;-67
2021/12/20 04:44:23;;;;;;;5.67;1.80;;;;;;;-2.39;54.76;96561.19;5008597;28;20050;-68
2021/12/20 04:46:49;;;;;;;5.57;1.60;;;;;;;-2.43;54.77;96560.91;4992662;28;20065;-67
2021/12/20 04:49:15;;;;;;;6.57;1.83;;;;;;;-2.36;54.52;96568.66;4958406;28;20105;-67
2021/12/20 04:51:42;;;;;;;6.97;1.90;;;;;;;-2.30;54.72;96575.59;4990122;28;20044;-66
2021/12/20 04:54:09;;;;;;;4.20;1.80;;;;;;;-2.26;54.32;96567.84;4992550;28;20052;-68
2021/12/20 04:56:35;;;;;;;5.83;2.13;;;;;;;-2.34;54.12;96579.09;4992357;28;20050;-67
2021/12/20 04:59:01;;;;;;;7.00;2.15;;;;;;;-2.32;54.15;96582.31;4992310;28;20137;-67
2021/12/20 05:01:27;;;;;;;6.53;2.13;;;;;;;-2.34;54.17;96582.56;4990430;28;20140;-67
2021/12/20 05:03:53;;;;;;;6.63;2.10;;;;;;;-2.32;54.05;96587.66;5001715;28;20477;-66
2021/12/20 05:06:19;;;;;;;6.73;2.10;;;;;;;-2.30;54.02;96588.97;4992996;28;20054;-66
2021/12/20 05:08:50;;;;;;;5.63;1.90;;;;;;;-2.35;54.04;96599.72;4991758;28;20050;-68
2021/12/20 05:11:16;;;;;;;6.13;1.97;;;;;;;-2.32;53.96;96598.38;4989993;28;20054;-68
2021/12/20 05:13:43;;;;;;;5.73;1.80;;;;;;;-2.34;53.73;96600.50;4991177;28;20096;-68
2021/12/20 05:16:09;;;;;;;5.40;1.73;;;;;;;-2.42;53.65;96599.16;4993859;28;20070;-68
2021/12/20 05:18:36;;;;;;;5.47;1.80;;;;;;;-2.46;53.70;96614.16;4989513;28;20062;-68
2021/12/20 05:21:03;;;;;;;5.83;2.10;;;;;;;-2.49;53.80;96607.50;4992758;28;20050;-68
2021/12/20 05:23:29;;;;;;;6.10;2.10;;;;;;;-2.51;53.72;96622.19;4990439;28;20042;-68
2021/12/20 05:25:57;;;;;;;7.47;2.10;;;;;;;-2.52;53.92;96620.59;4992383;28;20100;-68
2021/12/20 05:28:23;;;;;;;5.90;2.17;;;;;;;-2.50;53.92;96621.91;4991136;28;20422;-68
2021/12/20 05:30:51;;;;;;;6.07;2.00;;;;;;;-2.48;53.80;96627.00;4999219;28;20101;-66
2021/12/20 05:33:18;;;;;;;4.77;1.60;;;;;;;-2.51;53.76;96628.34;4991842;28;20096;-66
2021/12/20 05:35:44;;;;;;;6.60;2.13;;;;;;;-2.66;54.17;96634.50;4991769;28;20137;-68
2021/12/20 05:38:10;;;;;;;8.50;2.07;;;;;;;-2.59;54.17;96642.25;4990279;28;20085;-68
2021/12/20 05:40:36;;;;;;;5.77;2.07;;;;;;;-2.58;54.10;96635.84;5008115;28;20069;-68
2021/12/20 05:43:04;;;;;;;8.10;2.10;;;;;;;-2.67;53.83;96659.63;4992788;28;20415;-67
2021/12/20 05:45:30;;;;;;;6.00;2.10;;;;;;;-2.71;53.87;96645.97;4992377;28;20050;-69
2021/12/20 05:47:57;;;;;;;6.23;2.00;;;;;;;-2.71;53.62;96645.97;4988191;28;20455;-67
2021/12/20 05:50:24;;;;;;;5.27;1.87;;;;;;;-2.65;53.53;96656.72;5004254;28;20149;-65
2021/12/20 05:52:50;;;;;;;5.38;1.80;;;;;;;-2.52;52.96;96666.88;4992128;28;20115;-64
2021/12/20 05:55:17;;;;;;;6.23;2.20;;;;;;;-2.61;53.01;96677.28;4991026;28;20407;-65
2021/12/20 05:57:44;;;;;;;6.00;2.08;;;;;;;-2.59;53.18;96680.50;4992850;28;20065;-67
2021/12/20 06:00:15;;;;;;;9.53;2.03;;;;;;;-2.58;52.83;96689.34;4993421;28;20583;-67
2021/12/20 06:02:42;;;;;;;7.87;2.07;;;;;;;-2.55;52.85;96685.34;4986419;28;20085;-67
2021/12/20 06:05:10;;;;;;;8.52;1.98;;;;;;;-2.47;52.81;96688.28;4991854;28;20151;-67
2021/12/20 06:07:39;;;;;;;5.20;2.10;;;;;;;-2.61;52.96;96679.97;4991158;28;20045;-67
2021/12/20 06:10:08;;;;;;;7.97;2.07;;;;;;;-2.65;53.00;96694.94;4992791;28;20073;-66
2021/12/20 06:12:35;;;;;;;8.30;2.33;;;;;;;-2.68;53.40;96703.50;4992409;28;20050;-67
2021/12/20 06:15:02;;;;;;;8.20;2.37;;;;;;;-2.64;53.25;96703.78;4990371;28;20100;-66
2021/12/20 06:17:30;;;;;;;7.88;2.30;;;;;;;-2.75;53.39;96700.28;4995333;28;20336;-67
2021/12/20 06:19:57;;;;;;;6.97;2.17;;;;;;;-2.79;53.34;96713.38;4993357;28;20133;-67
2021/12/20 06:22:23;;;;;;;7.30;2.47;;;;;;;-2.81;53.65;96714.72;4995419;28;20571;-66
2021/12/20 06:24:50;;;;;;;6.13;2.13;;;;;;;-2.78;53.66;96716.84;4991411;28;20081;-67
2021/12/20 06:27:16;;;;;;;8.35;2.63;;;;;;;-2.79;53.97;96726.75;4993203;28;20041;-66
2021/12/20 06:29:43;;;;;;;6.73;2.20;;;;;;;-2.82;53.82;96732.63;4988441;28;20062;-67
2021/12/20 06:32:09;;;;;;;7.77;2.40;;;;;;;-2.84;53.93;96732.06;4993270;28;20077;-68
2021/12/20 06:34:36;;;;;;;8.30;2.57;;;;;;;-2.82;54.17;96751.34;4972504;28;20511;-67
2021/12/20 06:37:03;;;;;;;8.13;2.70;;;;;;;-2.75;53.61;96756.44;4992129;28;20057;-65
2021/12/20 06:39:30;;;;;;;8.75;2.70;;;;;;;-2.77;53.86;96759.41;4991907;28;20057;-67
2021/12/20 06:41:58;;;;;;;8.52;2.28;;;;;;;-2.79;54.11;96756.19;4990464;28;20125;-67
2021/12/20 06:44:24;;;;;;;9.63;2.72;;;;;;;-2.79;54.06;96758.03;4989548;28;20734;-67
2021/12/20 06:46:51;;;;;;;7.37;2.30;;;;;;;-2.76;53.75;96760.19;4984642;28;20052;-67
2021/12/20 06:49:17;;;;;;;8.95;2.40;;;;;;;-2.78;53.30;96767.66;4991039;28;20054;-66
2021/12/20 06:51:45;;;;;;;10.13;2.80;;;;;;;-2.78;53.28;96775.69;4991473;28;20052;-66
2021/12/20 06:54:13;;;;;;;6.45;2.47;;;;;;;-2.81;53.12;96779.72;4992343;28;20069;-66
2021/12/20 06:56:40;;;;;;;7.37;2.50;;;;;;;-2.68;52.88;96788.28;4958590;28;20075;-67
2021/12/20 06:59:07;;;;;;;10.63;2.43;;;;;;;-2.69;52.92;96789.38;4992042;28;20066;-69
2021/12/20 07:01:33;;;;;;;6.07;2.37;;;;;;;-2.63;52.69;96791.00;4991255;28;20058;-69
2021/12/20 07:04:01;;;;;;;8.57;3.23;;;;;;;-2.68;52.99;96788.28;4992305;28;20702;-68
2021/12/20 07:06:27;;;;;;;7.30;2.57;;;;;;;-2.62;52.76;96790.72;4991676;28;20149;-65
2021/12/20 07:08:55;;;;;;;9.43;3.27;;;;;;;-2.70;53.12;96783.22;5003583;28;20148;-66
2021/12/20 07:11:22;;;;;;;7.60;2.50;;;;;;;-2.73;52.83;96799.81;4992446;28;20053;-66
2021/12/20 07:13:48;;;;;;;9.17;2.77;;;;;;;-2.80;52.82;96791.22;4992293;28;20411;-65
2021/12/20 07:16:14;;;;;;;8.50;2.40;;;;;;;-2.79;52.74;96807.00;4990704;28;20062;-66
2021/12/20 07:18:41;;;;;;;11.30;3.00;;;;;;;-2.90;52.83;96802.66;4991489;28;20054;-65
2021/12/20 07:21:07;;;;;;;7.57;2.70;;;;;;;-2.75;52.63;96818.78;4979933;28;20639;-64
2021/12/20 07:23:34;;;;;;;9.23;2.80;;;;;;;-2.75;52.90;96824.13;4991995;28;20082;-65
2021/12/20 07:26:02;;;;;;;6.45;2.40;;;;;;;-2.85;52.60;96824.06;4992145;28;20438;-65
2021/12/20 07:28:29;;;;;;;7.70;2.60;;;;;;;-2.87;52.89;96840.41;4973574;28;20565;-66
2021/12/20 07:30:55;;;;;;;6.60;2.20;;;;;;;-2.77;52.82;96836.16;4992288;28;20153;-66
2021/12/20 07:33:21;;;;;;;8.63;2.67;;;;;;;-2.88;52.45;96844.13;4991380;28;20546;-66
2021/12/20 07:35:49;;;;;;;8.07;2.43;;;;;;;-2.83;52.37;96834.53;5002371;28;20064;-66
2021/12/20 07:38:16;;;;;;;9.37;2.77;;;;;;;-2.87;52.42;96839.59;4972593;28;20105;-65
2021/12/20 07:40:43;;;;;;;10.27;2.80;;;;;;;-2.87;52.49;96847.59;4991889;28;20050;-65
2021/12/20 07:43:11;;;;;;;9.05;2.75;;;;;;;-2.92;52.64;96848.38;4991138;28;20050;-66
2021/12/20 07:45:37;;;;;;;9.90;2.77;;;;;;;-2.93;52.61;96854.78;4998391;28;20042;-65
2021/12/20 07:48:04;;;;;;;7.60;2.80;;;;;;;-3.03;52.83;96855.53;5005593;28;20445;-65
2021/12/20 07:50:30;;;;;;;11.60;2.80;;;;;;;-3.04;53.05;96855.81;4994160;28;20046;-65
2021/12/20 07:52:56;;;;;;;9.27;2.97;;;;;;;-2.99;52.63;96864.66;4992113;28;20141;-66
2021/12/20 07:55:22;;;;;;;10.80;2.80;;;;;;;-3.03;52.85;96860.88;4990559;28;20145;-65
2021/12/20 07:57:50;;;;;;;9.07;3.00;;;;;;;-2.98;52.72;96865.47;4985966;28;20054;-65
2021/12/20 08:00:18;;;;;;;7.28;2.67;;;;;;;-2.93;52.83;96880.75;4985325;28;20108;-64
2021/12/20 08:02:44;;;;;;;;;;;;;;;-2.97;52.85;96883.13;4995358;28;20517;-65
2021/12/20 08:05:13;;;;;;;8.67;3.07;;;;;;;-2.89;52.71;96884.50;4994448;28;19933;-65
2021/12/20 08:07:40;;;;;;;10.93;3.17;;;;;;;-2.85;52.71;96885.59;4975890;28;20050;-66
2021/12/20 08:10:07;;;;;;;9.57;2.87;;;;;;;-2.83;52.65;96893.38;4980261;28;20424;-66
2021/12/20 08:12:33;;;;;;;8.60;3.13;;;;;;;-2.85;52.58;96885.59;4991098;28;20042;-69
2021/12/20 08:15:00;;;;;;;9.33;2.83;;;;;;;-2.83;52.67;96883.44;4985410;28;20038;-69
2021/12/20 08:17:28;;;;;;;7.93;2.60;;;;;;;-2.80;52.38;96890.16;4990085;28;20415;-70
2021/12/20 08:19:54;;;;;;;8.63;3.00;;;;;;;-2.85;52.54;96897.09;4991076;28;20637;-69
2021/12/20 08:22:24;;;;;;;8.20;2.47;;;;;;;-2.81;52.38;96902.75;4990427;28;20058;-69
2021/12/20 08:24:51;;;;;;;7.57;3.03;;;;;;;-2.83;52.41;96904.06;4990553;28;20546;-71
2021/12/20 08:27:18;;;;;;;9.37;3.10;;;;;;;-2.86;52.39;96897.34;4990004;28;20070;-69
2021/12/20 08:29:44;;;;;;;11.37;4.33;;;;;;;-2.78;52.23;96906.75;4989496;28;20046;-70
2021/12/20 08:32:11;;;;;;;10.40;3.10;;;;;;;-2.76;51.86;96899.28;4989439;28;20053;-69
2021/12/20 08:34:38;;;;;;;8.75;2.97;;;;;;;-2.64;51.77;96917.81;4988001;28;20061;-70
2021/12/20 08:37:06;;;;;;;8.98;2.80;;;;;;;-2.63;51.29;96919.44;4990717;28;20054;-71
2021/12/20 08:39:33;;;;;;;8.60;2.83;;;;;;;-2.61;51.54;96925.31;4984754;28;20050;-69
2021/12/20 08:41:59;;;;;;;9.98;3.00;;;;;;;-2.61;51.11;96919.97;4993857;28;20050;-70
2021/12/20 08:44:26;;;;;;;9.47;3.00;;;;;;;-2.65;51.19;96919.69;4994722;28;20065;-69
2021/12/20 08:46:52;;;;;;;8.47;2.73;;;;;;;-2.62;50.91;96924.50;4958417;28;20070;-70
2021/12/20 08:49:19;;;;;;;10.37;3.33;;;;;;;-2.52;50.81;96934.44;4992952;28;20058;-70
2021/12/20 08:51:47;;;;;;;7.47;2.63;;;;;;;-2.37;50.68;96939.09;4996086;28;20143;-70
2021/12/20 08:54:13;;;;;;;9.18;2.67;;;;;;;-2.49;50.62;96930.44;4957290;28;20141;-70
2021/12/20 08:56:40;;;;;;;8.60;2.80;;;;;;;-2.48;50.69;96945.44;4960867;28;20093;-70
2021/12/20 08:59:07;;;;;;;14.33;3.07;;;;;;;-2.46;50.72;96952.16;4993080;28;20408;-70
2021/12/20 09:01:35;;;;;;;11.10;3.00;;;;;;;-2.42;50.61;96945.22;4994393;28;20046;-70
2021/12/20 09:04:02;;;;;;;9.40;3.40;;;;;;;-2.39;50.39;96953.78;4990632;28;20053;-67
2021/12/20 09:06:28;;;;;;;10.40;2.83;;;;;;;-2.35;50.20;96958.38;4992712;28;20136;-67
2021/12/20 09:08:56;;;;;;;7.93;2.70;;;;;;;-2.38;50.41;96950.84;4993007;28;20491;-67
2021/12/20 09:11:25;;;;;;;10.03;3.03;;;;;;;-2.33;50.30;96960.78;4993413;28;20042;-66
2021/12/20 09:13:52;;;;;;;9.80;3.00;;;;;;;-2.35;50.30;96968.25;4985915;28;20042;-66
2021/12/20 09:16:19;;;;;;;7.68;3.00;;;;;;;-2.35;50.22;96968.25;4989522;28;20280;-66
2021/12/20 09:18:45;;;;;;;9.83;3.40;;;;;;;-2.36;50.08;96967.47;4999528;28;20145;-67
2021/12/20 09:21:12;;;;;;;16.10;5.60;;;;;;;-2.37;50.14;96967.72;4992682;28;20050;-67
2021/12/20 09:23:40;;;;;;;14.67;4.87;;;;;;;-2.42;50.19;96968.47;4993686;28;20410;-66
2021/12/20 09:26:07;;;;;;;11.10;3.97;;;;;;;-2.43;49.98;96986.41;4992610;28;20509;-67
2021/12/20 09:28:34;;;;;;;10.73;3.67;;;;;;;-2.34;49.99;96989.41;4974573;28;20137;-67
2021/12/20 09:31:02;;;;;;;9.17;3.70;;;;;;;-2.35;49.86;96977.09;4979757;28;20462;-66
2021/12/20 09:33:28;;;;;;;10.38;3.70;;;;;;;-2.23;49.58;96992.16;4994289;28;20050;-65
2021/12/20 09:35:54;;;;;;;9.47;3.70;;;;;;;-2.23;49.63;96979.56;4997298;28;20490;-66
2021/12/20 09:38:22;;;;;;;9.63;3.37;;;;;;;-2.19;49.46;96977.97;4992788;28;20053;-66
2021/12/20 09:43:39;;;;;;;9.07;3.15;;;;;;;-2.15;49.09;97010.38;4992661;28;20558;-66
2021/12/20 09:46:05;;;;;;;8.67;3.23;;;;;;;-2.12;48.68;97006.38;4993275;28;20445;-65
2021/12/20 09:48:34;;;;;;;8.50;2.95;;;;;;;-2.12;48.80;97011.75;4995405;28;20050;-66
2021/12/20 09:51:02;;;;;;;9.63;2.70;;;;;;;-2.08;48.61;97010.16;4992346;28;20518;-66
2021/12/20 09:53:29;;;;;;;15.13;3.63;;;;;;;-2.15;48.67;97016.56;4998053;28;20097;-65
2021/12/20 09:55:57;;;;;;;10.60;3.20;;;;;;;-2.22;48.73;97015.97;4992644;28;20054;-67
2021/12/20 09:58:26;;;;;;;9.33;3.10;;;;;;;-2.21;48.80;97024.81;4975677;28;20046;-65
2021/12/20 10:00:55;;;;;;;7.50;2.80;;;;;;;-2.30;48.87;97029.84;4993743;28;20138;-66
2021/12/20 10:03:24;;;;;;;9.48;3.42;;;;;;;-2.33;48.69;97027.72;5013335;28;20100;-66
2021/12/20 10:05:55;;;;;;;9.03;2.93;;;;;;;-2.43;48.84;97025.75;4997389;28;20052;-65
2021/12/20 10:08:31;;;;;;;10.50;3.40;;;;;;;-2.45;48.79;97026.03;4974342;28;20046;-65
2021/12/20 10:11:00;;;;;;;7.77;2.70;;;;;;;-2.42;48.67;97038.06;4979964;28;20050;-65
2021/12/20 10:13:28;;;;;;;8.40;3.00;;;;;;;-2.40;48.79;97043.16;4990557;28;20046;-65
2021/12/20 10:15:57;;;;;;;10.10;3.10;;;;;;;-2.47;48.76;97052.25;4992380;28;20206;-65
2021/12/20 10:18:25;;;;;;;10.30;3.13;;;;;;;-2.37;48.82;97046.16;4991722;28;20101;-65
2021/12/20 10:20:53;;;;;;;10.20;3.10;;;;;;;-2.19;48.68;97052.94;4991844;28;20061;-64
2021/12/20 10:23:21;;;;;;;8.83;2.97;;;;;;;-2.24;48.62;97046.75;4992859;28;20519;-64
2021/12/20 10:25:49;;;;;;;8.30;2.90;;;;;;;-2.30;48.55;97059.31;4977336;28;20419;-64
2021/12/20 10:28:24;;;;;;;7.77;2.47;;;;;;;-2.28;48.28;97063.31;4990965;28;20418;-64
2021/12/20 10:30:59;;;;;;;10.27;2.93;;;;;;;-2.41;48.34;97058.44;4980735;28;20077;-63
2021/12/20 10:33:25;;;;;;;9.70;2.90;;;;;;;-2.43;48.51;97063.22;4992318;28;20058;-64
2021/12/20 10:35:54;;;;;;;12.97;2.93;;;;;;;-2.43;48.28;97060.53;4995040;28;20108;-65
2021/12/20 10:38:30;;;;;;;9.47;2.60;;;;;;;-2.41;48.24;97061.13;4984567;28;20090;-65
2021/12/20 10:41:00;;;;;;;7.25;2.60;;;;;;;-2.52;48.15;97075.47;4991454;28;20140;-66
2021/12/20 10:43:35;;;;;;;9.77;2.70;;;;;;;-2.67;48.19;97079.66;4974954;28;20145;-65
2021/12/20 10:46:09;;;;;;;7.10;2.23;;;;;;;-2.74;48.18;97098.59;4989634;28;20096;-65
2021/12/20 10:48:36;;;;;;;8.80;2.90;;;;;;;-2.75;48.50;97106.84;4992210;28;20054;-73
2021/12/20 10:51:03;;;;;;;8.73;2.90;;;;;;;-2.66;48.02;97093.81;4976704;28;20064;-73
2021/12/20 10:53:29;;;;;;;9.38;3.13;;;;;;;-2.76;48.13;97106.06;4991602;28;20388;-73
2021/12/20 10:55:58;;;;;;;7.27;2.40;;;;;;;-2.81;48.18;97100.69;4992223;28;20502;-73
2021/12/20 10:58:34;;;;;;;8.47;2.93;;;;;;;-2.82;48.03;97101.72;4992734;28;20088;-73
2021/12/20 11:04:02;;;;;;;8.43;2.37;;;;;;;-2.75;47.45;97120.22;4988992;28;20050;-74
2021/12/20 11:09:13;;;;;;;7.80;2.75;;;;;;;-2.78;47.47;97132.25;4990990;28;20048;-70
2021/12/20 11:11:41;;;;;;;8.00;2.37;;;;;;;-2.77;47.26;97131.19;4987916;28;20038;-71
2021/12/20 11:14:09;;;;;;;8.52;2.30;;;;;;;-2.89;47.61;97131.38;4990502;28;20601;-71
2021/12/20 11:16:39;;;;;;;8.17;2.50;;;;;;;-2.90;47.41;97126.25;4990562;28;20058;-71
2021/12/20 11:19:28;;;;;;;7.00;2.80;;;;;;;-3.01;47.46;97130.69;4973112;28;20038;-71
2021/12/20 11:21:57;;;;;;;11.33;3.00;;;;;;;-3.07;47.80;97147.72;4986902;28;20100;-71
2021/12/20 11:24:26;;;;;;;7.27;2.30;;;;;;;-3.15;47.53;97147.13;4991503;28;20567;-71
2021/12/20 11:26:53;;;;;;;7.37;2.20;;;;;;;-3.11;47.59;97152.78;4990649;28;20092;-70
2021/12/20 11:29:21;;;;;;;8.17;2.70;;;;;;;-3.10;47.48;97156.25;4989172;28;20196;-70
2021/12/20 11:31:50;;;;;;;8.27;2.83;;;;;;;-3.15;47.30;97148.97;5002127;28;20553;-70
2021/12/20 11:34:16;;;;;;;8.37;2.60;;;;;;;-3.21;47.41;97153.47;4991645;28;20109;-70
2021/12/20 11:36:43;;;;;;;7.50;2.70;;;;;;;-3.18;47.13;97155.66;4973333;28;20081;-71
2021/12/20 11:39:10;;;;;;;7.75;2.45;;;;;;;-3.18;47.24;97170.88;4986961;28;20054;-71
2021/12/20 11:41:36;;;;;;;9.07;3.17;;;;;;;-3.20;47.47;97171.16;4990903;28;20052;-72
2021/12/20 11:44:06;;;;;;;9.07;2.67;;;;;;;-3.21;47.47;97171.38;4973230;28;20120;-70
2021/12/20 11:46:38;;;;;;;10.27;2.60;;;;;;;-3.33;47.69;97164.28;5005384;28;20054;-71
2021/12/20 11:49:06;;;;;;;10.70;3.30;;;;;;;-3.34;47.46;97175.25;4962545;28;20133;-71
2021/12/20 11:51:46;;;;;;;;;;;;;;;-3.44;47.67;97181.25;4985590;28;20055;-71
2021/12/20 11:54:32;;;;;;;7.20;2.43;;;;;;;-3.48;47.87;97170.28;4970462;28;19925;-72
2021/12/20 11:56:58;;;;;;;6.87;2.53;;;;;;;-3.52;47.94;97179.81;4984273;28;20526;-72
2021/12/20 11:59:46;;;;;;;7.60;2.60;;;;;;;-3.43;47.94;97189.03;4994229;28;20132;-74